Raleigh, Mississippi
Current Conditions -  °F | °C
As of 9:54 AM on Tuesday 27 Jan 2015 (Local Time) from KJAN Reporting Station
Clear Clear  
Wind Chill: 59°   Ceiling: Unl
Heat Index: 59°   Visibility: 10mi
Dew Point: 37°   Wind: 9mph
Humidity: 44%   Direction: 340°NNW
Pressure: 30.13"   Gusts: NA
Location:  32.03°N, 89.52°W
Report Text: KJAN 271554Z 34008KT 10SM CLR 15/03 A3013 RMK AO2 SLP201 T01500028
Loading
Personal Weather Stations






























Interactive Weather Map New forecast layout! Learn more

10-Day Weather Forecast

Advertisements
Track Severe Weather on mobile